Royal Prince — WCX8037 — position and weather

sailwx.info

Track history (hours):
 
Tides and Currents Weather Stations Pressure Air Temp Water Temp Dewpoint Dewpoint Depression Visibility Wind Speed Wind Dir Waves Ship Positions

Royal Prince

Owner: Golden Gate Scenic Steamship Corp, SAN FRANCISCO, CA. More information available from US FCC via Universal Licensing System and Coast Guard Vessel Documentation Center.

Last reported at 2015-Mar-03 03:33 UTC. Time now 2015-Mar-03 12:41 UTC.
Position N 37°49' W 122°25'.

Length 28 m; draft 2.3 m.

Type: Passenger vessel. MMSI: 366975760.

Date/timePositionNaut miles runAvg speedWind from/ knotsBaromVisibWave heightAir tempDewpointWater temp
2015-Mar-03 03:33N 37°49' W 122°25'2 2.0
2015-Mar-03 02:28N 37°49' W 122°27'2 2.3
2015-Mar-03 01:33N 37°49' W 122°25'1 0.6
2015-Mar-03 00:33N 37°49' W 122°25'1 0.5
2015-Mar-02 23:25N 37°49' W 122°25'0 0.1
2015-Mar-02 22:33N 37°49' W 122°25'3 2.9
2015-Mar-02 21:31N 37°49' W 122°29'3 2.5
2015-Mar-02 20:15N 37°49' W 122°25'2 2.1
2015-Mar-02 19:28N 37°49' W 122°27'1 0.8
2015-Mar-02 18:31N 37°49' W 122°27'2 0.1
2015-Mar-02 03:33N 37°49' W 122°25'3 2.8
2015-Mar-02 02:33N 37°49' W 122°21'3 2.9
2015-Mar-02 01:33N 37°49' W 122°25'1 0.7
2015-Mar-02 00:33N 37°49' W 122°24'1 0.7
2015-Mar-01 23:32N 37°49' W 122°25'0 0.0
2015-Mar-01 22:33N 37°49' W 122°25'3 3.0
2015-Mar-01 21:32N 37°49' W 122°29'3 3.1
2015-Mar-01 20:33N 37°49' W 122°25'2 1.6
2015-Mar-01 19:30N 37°49' W 122°27'1 1.1
2015-Mar-01 18:33N 37°50' W 122°26'2 0.1
2015-Mar-01 03:33N 37°49' W 122°25'2 2.2
2015-Mar-01 02:33N 37°50' W 122°23'2 2.2
2015-Mar-01 01:34N 37°49' W 122°25'1 0.6
2015-Mar-01 00:33N 37°49' W 122°24'1 0.6
2015-Feb-28 23:33N 37°49' W 122°25'0 0.1
2015-Feb-28 22:34N 37°49' W 122°25'3 2.8
2015-Feb-28 21:34N 37°49' W 122°28'3 2.9
2015-Feb-28 20:33N 37°49' W 122°25'2 2.1
2015-Feb-28 19:34N 37°49' W 122°28'1 0.6
2015-Feb-28 18:32N 37°49' W 122°27'2 2.2
2015-Feb-28 17:33N 37°49' W 122°25'0 0.0
2015-Feb-28 16:33N 37°49' W 122°25'0 0.0
2015-Feb-28 04:12N 37°49' W 122°25'0 0.0
2015-Feb-28 03:34N 37°49' W 122°25'3 2.8
2015-Feb-28 02:33N 37°49' W 122°22'3 2.8
2015-Feb-28 01:34N 37°49' W 122°25'1 0.9
2015-Feb-28 00:33N 37°49' W 122°25'1 0.9
2015-Feb-27 23:33N 37°49' W 122°25'0 0.0
2015-Feb-27 22:33N 37°49' W 122°25'3 2.6
2015-Feb-27 21:34N 37°49' W 122°28'3 2.6
2015-Feb-27 20:34N 37°49' W 122°25'2 1.5
2015-Feb-27 19:33N 37°49' W 122°27'1 0.8
2015-Feb-27 18:34N 37°50' W 122°27'2 1.9
2015-Feb-27 17:33N 37°49' W 122°25'0 0.0
2015-Feb-27 03:33N 37°49' W 122°25'3 3.0
2015-Feb-27 02:33N 37°49' W 122°21'3 3.0
2015-Feb-27 01:33N 37°49' W 122°25'1 0.7
2015-Feb-27 00:33N 37°49' W 122°24'1 0.7
2015-Feb-26 23:33N 37°49' W 122°25'0 0.0
2015-Feb-26 22:33N 37°49' W 122°25'2 2.5
2015-Feb-26 21:33N 37°49' W 122°28'2 2.5
2015-Feb-26 20:33N 37°49' W 122°25'2 2.0
2015-Feb-26 19:33N 37°49' W 122°27'1 0.7
2015-Feb-26 18:33N 37°49' W 122°28'2 0.1
2015-Feb-26 00:33N 37°49' W 122°25'1 0.8
2015-Feb-25 23:33N 37°49' W 122°25'0 0.0
2015-Feb-25 22:33N 37°49' W 122°25'3 3.1
2015-Feb-25 21:33N 37°49' W 122°29'3 3.1
2015-Feb-25 20:33N 37°49' W 122°25'2 1.9
2015-Feb-25 19:33N 37°49' W 122°27'1 0.7
2015-Feb-25 18:33N 37°49' W 122°27'2 1.8
2015-Feb-25 17:33N 37°49' W 122°25'0 0.0
2015-Feb-25 00:07N 37°49' W 122°25'2 3.4
2015-Feb-24 23:33N 37°50' W 122°27'2 2.1
2015-Feb-24 22:33N 37°49' W 122°24'1 0.7
2015-Feb-24 21:34N 37°49' W 122°25'2 2.2
2015-Feb-24 20:33N 37°50' W 122°27'2 0.1
2015-Feb-24 03:33N 37°49' W 122°25'3 2.6
2015-Feb-24 02:33N 37°50' W 122°22'3 2.6
2015-Feb-24 01:33N 37°49' W 122°25'1 0.7
2015-Feb-24 00:33N 37°49' W 122°24'1 0.7
2015-Feb-23 23:33N 37°49' W 122°25'0 0.0
2015-Feb-23 22:33N 37°49' W 122°25'3 3.1
2015-Feb-23 21:33N 37°49' W 122°29'3 3.1
2015-Feb-23 20:33N 37°49' W 122°25'2 2.1
2015-Feb-23 19:33N 37°49' W 122°28'1 0.9
2015-Feb-23 18:33N 37°50' W 122°27'2 0.1
2015-Feb-23 03:33N 37°49' W 122°25'2 2.5
2015-Feb-23 02:33N 37°50' W 122°22'2 2.5
2015-Feb-23 01:33N 37°49' W 122°25'1 0.6
2015-Feb-23 00:33N 37°49' W 122°25'1 0.6
2015-Feb-22 23:33N 37°49' W 122°25'0 0.0
2015-Feb-22 22:33N 37°49' W 122°25'2 2.0
2015-Feb-22 21:33N 37°49' W 122°27'2 2.0
2015-Feb-22 20:33N 37°49' W 122°25'2 1.8
2015-Feb-22 19:33N 37°49' W 122°27'1 0.6
2015-Feb-22 18:33N 37°49' W 122°27'2 0.1
2015-Feb-22 03:33N 37°49' W 122°25'3 2.6
2015-Feb-22 02:33N 37°50' W 122°22'3 2.5
2015-Feb-22 01:33N 37°49' W 122°25'1 1.3
2015-Feb-22 00:33N 37°50' W 122°25'1 1.3
2015-Feb-21 23:33N 37°49' W 122°25'0 0.0
2015-Feb-21 22:33N 37°49' W 122°25'3 2.6
2015-Feb-21 21:33N 37°49' W 122°28'3 2.6
2015-Feb-21 20:33N 37°49' W 122°25'1 1.2
2015-Feb-21 19:33N 37°49' W 122°26'1 0.7
2015-Feb-21 18:33N 37°49' W 122°27'2 0.1
2015-Feb-21 03:33N 37°49' W 122°25'  
Track history (hours):
 
Tides and Currents Weather Stations Pressure Air Temp Water Temp Dewpoint Dewpoint Depression Visibility Wind Speed Wind Dir Waves Ship Positions

Royal Prince

Owner: Golden Gate Scenic Steamship Corp, SAN FRANCISCO, CA. More information available from US FCC via Universal Licensing System and Coast Guard Vessel Documentation Center.

Last reported at 2015-Mar-03 03:33 UTC. Time now 2015-Mar-03 12:41 UTC.
Position N 37°49' W 122°25'.

Length 28 m; draft 2.3 m.

Type: Passenger vessel. MMSI: 366975760.

Date/timePositionNaut miles runAvg speedWind from/ knotsBaromVisibWave heightAir tempDewpointWater temp
2015-Mar-03 03:33N 37°49' W 122°25'2 2.0
2015-Mar-03 02:28N 37°49' W 122°27'2 2.3
2015-Mar-03 01:33N 37°49' W 122°25'1 0.6
2015-Mar-03 00:33N 37°49' W 122°25'1 0.5
2015-Mar-02 23:25N 37°49' W 122°25'0 0.1
2015-Mar-02 22:33N 37°49' W 122°25'3 2.9
2015-Mar-02 21:31N 37°49' W 122°29'3 2.5
2015-Mar-02 20:15N 37°49' W 122°25'2 2.1
2015-Mar-02 19:28N 37°49' W 122°27'1 0.8
2015-Mar-02 18:31N 37°49' W 122°27'2 0.1
2015-Mar-02 03:33N 37°49' W 122°25'3 2.8
2015-Mar-02 02:33N 37°49' W 122°21'3 2.9
2015-Mar-02 01:33N 37°49' W 122°25'1 0.7
2015-Mar-02 00:33N 37°49' W 122°24'1 0.7
2015-Mar-01 23:32N 37°49' W 122°25'0 0.0
2015-Mar-01 22:33N 37°49' W 122°25'3 3.0
2015-Mar-01 21:32N 37°49' W 122°29'3 3.1
2015-Mar-01 20:33N 37°49' W 122°25'2 1.6
2015-Mar-01 19:30N 37°49' W 122°27'1 1.1
2015-Mar-01 18:33N 37°50' W 122°26'2 0.1
2015-Mar-01 03:33N 37°49' W 122°25'2 2.2
2015-Mar-01 02:33N 37°50' W 122°23'2 2.2
2015-Mar-01 01:34N 37°49' W 122°25'1 0.6
2015-Mar-01 00:33N 37°49' W 122°24'1 0.6
2015-Feb-28 23:33N 37°49' W 122°25'0 0.1
2015-Feb-28 22:34N 37°49' W 122°25'3 2.8
2015-Feb-28 21:34N 37°49' W 122°28'3 2.9
2015-Feb-28 20:33N 37°49' W 122°25'2 2.1
2015-Feb-28 19:34N 37°49' W 122°28'1 0.6
2015-Feb-28 18:32N 37°49' W 122°27'2 2.2
2015-Feb-28 17:33N 37°49' W 122°25'0 0.0
2015-Feb-28 16:33N 37°49' W 122°25'0 0.0
2015-Feb-28 04:12N 37°49' W 122°25'0 0.0
2015-Feb-28 03:34N 37°49' W 122°25'3 2.8
2015-Feb-28 02:33N 37°49' W 122°22'3 2.8
2015-Feb-28 01:34N 37°49' W 122°25'1 0.9
2015-Feb-28 00:33N 37°49' W 122°25'1 0.9
2015-Feb-27 23:33N 37°49' W 122°25'0 0.0
2015-Feb-27 22:33N 37°49' W 122°25'3 2.6
2015-Feb-27 21:34N 37°49' W 122°28'3 2.6
2015-Feb-27 20:34N 37°49' W 122°25'2 1.5
2015-Feb-27 19:33N 37°49' W 122°27'1 0.8
2015-Feb-27 18:34N 37°50' W 122°27'2 1.9
2015-Feb-27 17:33N 37°49' W 122°25'0 0.0
2015-Feb-27 03:33N 37°49' W 122°25'3 3.0
2015-Feb-27 02:33N 37°49' W 122°21'3 3.0
2015-Feb-27 01:33N 37°49' W 122°25'1 0.7
2015-Feb-27 00:33N 37°49' W 122°24'1 0.7
2015-Feb-26 23:33N 37°49' W 122°25'0 0.0
2015-Feb-26 22:33N 37°49' W 122°25'2 2.5
2015-Feb-26 21:33N 37°49' W 122°28'2 2.5
2015-Feb-26 20:33N 37°49' W 122°25'2 2.0
2015-Feb-26 19:33N 37°49' W 122°27'1 0.7
2015-Feb-26 18:33N 37°49' W 122°28'2 0.1
2015-Feb-26 00:33N 37°49' W 122°25'1 0.8
2015-Feb-25 23:33N 37°49' W 122°25'0 0.0
2015-Feb-25 22:33N 37°49' W 122°25'3 3.1
2015-Feb-25 21:33N 37°49' W 122°29'3 3.1
2015-Feb-25 20:33N 37°49' W 122°25'2 1.9
2015-Feb-25 19:33N 37°49' W 122°27'1 0.7
2015-Feb-25 18:33N 37°49' W 122°27'2 1.8
2015-Feb-25 17:33N 37°49' W 122°25'0 0.0
2015-Feb-25 00:07N 37°49' W 122°25'2 3.4
2015-Feb-24 23:33N 37°50' W 122°27'2 2.1
2015-Feb-24 22:33N 37°49' W 122°24'1 0.7
2015-Feb-24 21:34N 37°49' W 122°25'2 2.2
2015-Feb-24 20:33N 37°50' W 122°27'2 0.1
2015-Feb-24 03:33N 37°49' W 122°25'3 2.6
2015-Feb-24 02:33N 37°50' W 122°22'3 2.6
2015-Feb-24 01:33N 37°49' W 122°25'1 0.7
2015-Feb-24 00:33N 37°49' W 122°24'1 0.7
2015-Feb-23 23:33N 37°49' W 122°25'0 0.0
2015-Feb-23 22:33N 37°49' W 122°25'3 3.1
2015-Feb-23 21:33N 37°49' W 122°29'3 3.1
2015-Feb-23 20:33N 37°49' W 122°25'2 2.1
2015-Feb-23 19:33N 37°49' W 122°28'1 0.9
2015-Feb-23 18:33N 37°50' W 122°27'2 0.1
2015-Feb-23 03:33N 37°49' W 122°25'2 2.5
2015-Feb-23 02:33N 37°50' W 122°22'2 2.5
2015-Feb-23 01:33N 37°49' W 122°25'1 0.6
2015-Feb-23 00:33N 37°49' W 122°25'1 0.6
2015-Feb-22 23:33N 37°49' W 122°25'0 0.0
2015-Feb-22 22:33N 37°49' W 122°25'2 2.0
2015-Feb-22 21:33N 37°49' W 122°27'2 2.0
2015-Feb-22 20:33N 37°49' W 122°25'2 1.8
2015-Feb-22 19:33N 37°49' W 122°27'1 0.6
2015-Feb-22 18:33N 37°49' W 122°27'2 0.1
2015-Feb-22 03:33N 37°49' W 122°25'3 2.6
2015-Feb-22 02:33N 37°50' W 122°22'3 2.5
2015-Feb-22 01:33N 37°49' W 122°25'1 1.3
2015-Feb-22 00:33N 37°50' W 122°25'1 1.3
2015-Feb-21 23:33N 37°49' W 122°25'0 0.0
2015-Feb-21 22:33N 37°49' W 122°25'3 2.6
2015-Feb-21 21:33N 37°49' W 122°28'3 2.6
2015-Feb-21 20:33N 37°49' W 122°25'1 1.2
2015-Feb-21 19:33N 37°49' W 122°26'1 0.7
2015-Feb-21 18:33N 37°49' W 122°27'2 0.1
2015-Feb-21 03:33N 37°49' W 122°25'  

Dump ship's entire track history